sensor_id;sensor_type;location;lat;lon;timestamp;P1;durP1;ratioP1;P2;durP2;ratioP2
20776;SDS011;10548;47.504;8.248;2023-04-25T00:00:18;6.00;;;3.17;;
20776;SDS011;10548;47.504;8.248;2023-04-25T00:02:45;8.17;;;3.33;;
20776;SDS011;10548;47.504;8.248;2023-04-25T00:05:13;8.07;;;3.17;;
20776;SDS011;10548;47.504;8.248;2023-04-25T00:07:41;8.83;;;3.37;;
20776;SDS011;10548;47.504;8.248;2023-04-25T00:10:09;5.53;;;3.20;;
20776;SDS011;10548;47.504;8.248;2023-04-25T00:12:38;14.20;;;3.30;;
20776;SDS011;10548;47.504;8.248;2023-04-25T00:15:05;8.27;;;3.70;;
20776;SDS011;10548;47.504;8.248;2023-04-25T00:17:33;6.73;;;2.80;;
20776;SDS011;10548;47.504;8.248;2023-04-25T00:20:01;6.67;;;3.13;;
20776;SDS011;10548;47.504;8.248;2023-04-25T00:22:31;8.17;;;2.73;;
20776;SDS011;10548;47.504;8.248;2023-04-25T00:25:00;6.80;;;2.37;;
20776;SDS011;10548;47.504;8.248;2023-04-25T00:27:28;4.53;;;2.07;;
20776;SDS011;10548;47.504;8.248;2023-04-25T00:29:55;5.93;;;2.07;;
20776;SDS011;10548;47.504;8.248;2023-04-25T00:32:22;4.07;;;1.93;;
20776;SDS011;10548;47.504;8.248;2023-04-25T00:34:49;3.90;;;1.83;;
20776;SDS011;10548;47.504;8.248;2023-04-25T00:37:16;3.87;;;1.80;;
20776;SDS011;10548;47.504;8.248;2023-04-25T00:39:45;7.83;;;2.03;;
20776;SDS011;10548;47.504;8.248;2023-04-25T00:42:12;4.30;;;1.77;;
20776;SDS011;10548;47.504;8.248;2023-04-25T00:44:40;4.47;;;1.80;;
20776;SDS011;10548;47.504;8.248;2023-04-25T00:47:08;3.57;;;1.63;;
20776;SDS011;10548;47.504;8.248;2023-04-25T00:49:37;5.50;;;1.93;;
20776;SDS011;10548;47.504;8.248;2023-04-25T00:52:04;2.83;;;1.70;;
20776;SDS011;10548;47.504;8.248;2023-04-25T00:54:31;2.73;;;1.90;;
20776;SDS011;10548;47.504;8.248;2023-04-25T00:56:59;5.83;;;1.80;;
20776;SDS011;10548;47.504;8.248;2023-04-25T00:59:27;5.67;;;2.00;;
20776;SDS011;10548;47.504;8.248;2023-04-25T01:01:56;5.40;;;2.23;;
20776;SDS011;10548;47.504;8.248;2023-04-25T01:04:24;4.00;;;1.70;;
20776;SDS011;10548;47.504;8.248;2023-04-25T01:06:56;5.50;;;2.00;;
20776;SDS011;10548;47.504;8.248;2023-04-25T01:09:24;5.73;;;1.60;;
20776;SDS011;10548;47.504;8.248;2023-04-25T01:11:52;3.33;;;1.43;;
20776;SDS011;10548;47.504;8.248;2023-04-25T01:14:19;4.50;;;1.73;;
20776;SDS011;10548;47.504;8.248;2023-04-25T01:16:46;8.33;;;1.97;;
20776;SDS011;10548;47.504;8.248;2023-04-25T01:19:15;7.47;;;2.10;;
20776;SDS011;10548;47.504;8.248;2023-04-25T01:21:45;5.07;;;1.83;;
20776;SDS011;10548;47.504;8.248;2023-04-25T01:24:13;4.23;;;1.60;;
20776;SDS011;10548;47.504;8.248;2023-04-25T01:26:41;7.07;;;1.77;;
20776;SDS011;10548;47.504;8.248;2023-04-25T01:29:20;6.77;;;1.90;;
20776;SDS011;10548;47.504;8.248;2023-04-25T01:31:48;7.00;;;2.10;;
20776;SDS011;10548;47.504;8.248;2023-04-25T01:34:16;9.97;;;2.20;;
20776;SDS011;10548;47.504;8.248;2023-04-25T01:36:43;5.00;;;1.70;;
20776;SDS011;10548;47.504;8.248;2023-04-25T01:39:11;5.30;;;1.73;;
20776;SDS011;10548;47.504;8.248;2023-04-25T01:41:38;4.67;;;2.00;;
20776;SDS011;10548;47.504;8.248;2023-04-25T01:44:06;8.37;;;2.10;;
20776;SDS011;10548;47.504;8.248;2023-04-25T01:46:33;5.27;;;2.00;;
20776;SDS011;10548;47.504;8.248;2023-04-25T01:49:01;5.60;;;1.90;;
20776;SDS011;10548;47.504;8.248;2023-04-25T01:51:29;5.27;;;1.97;;
20776;SDS011;10548;47.504;8.248;2023-04-25T01:53:58;6.03;;;2.10;;
20776;SDS011;10548;47.504;8.248;2023-04-25T01:56:31;4.97;;;2.00;;
20776;SDS011;10548;47.504;8.248;2023-04-25T01:58:59;3.73;;;2.00;;
20776;SDS011;10548;47.504;8.248;2023-04-25T02:01:50;5.47;;;2.00;;
20776;SDS011;10548;47.504;8.248;2023-04-25T02:04:24;7.97;;;2.43;;
20776;SDS011;10548;47.504;8.248;2023-04-25T02:06:52;12.40;;;2.73;;
20776;SDS011;10548;47.504;8.248;2023-04-25T02:09:20;6.67;;;1.90;;
20776;SDS011;10548;47.504;8.248;2023-04-25T02:11:52;4.73;;;1.97;;
20776;SDS011;10548;47.504;8.248;2023-04-25T02:14:40;6.53;;;2.20;;
20776;SDS011;10548;47.504;8.248;2023-04-25T02:17:14;6.90;;;2.33;;
20776;SDS011;10548;47.504;8.248;2023-04-25T02:19:43;6.30;;;1.90;;
20776;SDS011;10548;47.504;8.248;2023-04-25T02:22:11;3.20;;;1.90;;
20776;SDS011;10548;47.504;8.248;2023-04-25T02:24:39;4.93;;;2.00;;
20776;SDS011;10548;47.504;8.248;2023-04-25T02:27:06;4.40;;;1.67;;
20776;SDS011;10548;47.504;8.248;2023-04-25T02:29:34;4.37;;;1.93;;
20776;SDS011;10548;47.504;8.248;2023-04-25T02:32:01;5.07;;;2.00;;
20776;SDS011;10548;47.504;8.248;2023-04-25T02:34:29;6.53;;;1.83;;
20776;SDS011;10548;47.504;8.248;2023-04-25T02:36:59;5.77;;;2.67;;
20776;SDS011;10548;47.504;8.248;2023-04-25T02:39:26;7.80;;;2.00;;
20776;SDS011;10548;47.504;8.248;2023-04-25T02:41:54;6.47;;;2.13;;
20776;SDS011;10548;47.504;8.248;2023-04-25T02:44:22;4.87;;;2.10;;
20776;SDS011;10548;47.504;8.248;2023-04-25T02:46:49;5.37;;;2.30;;
20776;SDS011;10548;47.504;8.248;2023-04-25T02:49:16;6.50;;;1.90;;
20776;SDS011;10548;47.504;8.248;2023-04-25T02:51:43;4.87;;;2.03;;
20776;SDS011;10548;47.504;8.248;2023-04-25T02:54:10;3.07;;;1.80;;
20776;SDS011;10548;47.504;8.248;2023-04-25T02:56:42;3.57;;;2.07;;
20776;SDS011;10548;47.504;8.248;2023-04-25T02:59:14;7.47;;;2.47;;
20776;SDS011;10548;47.504;8.248;2023-04-25T03:01:41;6.97;;;2.50;;
20776;SDS011;10548;47.504;8.248;2023-04-25T03:04:08;5.97;;;2.40;;
20776;SDS011;10548;47.504;8.248;2023-04-25T03:06:35;5.23;;;2.67;;
20776;SDS011;10548;47.504;8.248;2023-04-25T03:09:02;5.40;;;2.80;;
20776;SDS011;10548;47.504;8.248;2023-04-25T03:11:30;5.10;;;2.37;;
20776;SDS011;10548;47.504;8.248;2023-04-25T03:13:59;3.57;;;2.07;;
20776;SDS011;10548;47.504;8.248;2023-04-25T03:16:26;9.70;;;2.70;;
20776;SDS011;10548;47.504;8.248;2023-04-25T03:18:54;5.60;;;2.33;;
20776;SDS011;10548;47.504;8.248;2023-04-25T03:21:21;5.17;;;2.30;;
20776;SDS011;10548;47.504;8.248;2023-04-25T03:23:50;3.60;;;2.30;;
20776;SDS011;10548;47.504;8.248;2023-04-25T03:26:17;8.43;;;2.80;;
20776;SDS011;10548;47.504;8.248;2023-04-25T03:28:45;7.60;;;2.50;;
20776;SDS011;10548;47.504;8.248;2023-04-25T03:31:12;6.40;;;2.93;;
20776;SDS011;10548;47.504;8.248;2023-04-25T03:33:39;6.10;;;2.50;;
20776;SDS011;10548;47.504;8.248;2023-04-25T03:36:07;6.43;;;2.93;;
20776;SDS011;10548;47.504;8.248;2023-04-25T03:38:34;9.20;;;2.70;;
20776;SDS011;10548;47.504;8.248;2023-04-25T03:41:02;5.43;;;2.53;;
20776;SDS011;10548;47.504;8.248;2023-04-25T03:43:45;6.90;;;2.50;;
20776;SDS011;10548;47.504;8.248;2023-04-25T03:46:14;8.37;;;2.63;;
20776;SDS011;10548;47.504;8.248;2023-04-25T03:48:42;7.30;;;2.47;;
20776;SDS011;10548;47.504;8.248;2023-04-25T03:51:14;10.90;;;2.90;;
20776;SDS011;10548;47.504;8.248;2023-04-25T03:53:43;6.43;;;2.60;;
20776;SDS011;10548;47.504;8.248;2023-04-25T03:56:29;6.80;;;2.43;;
20776;SDS011;10548;47.504;8.248;2023-04-25T03:59:08;5.57;;;2.70;;
20776;SDS011;10548;47.504;8.248;2023-04-25T04:01:35;6.07;;;2.67;;
20776;SDS011;10548;47.504;8.248;2023-04-25T04:04:03;7.53;;;3.03;;
20776;SDS011;10548;47.504;8.248;2023-04-25T04:06:31;10.93;;;3.00;;
20776;SDS011;10548;47.504;8.248;2023-04-25T04:09:05;4.13;;;2.63;;
20776;SDS011;10548;47.504;8.248;2023-04-25T04:11:38;5.93;;;3.00;;
20776;SDS011;10548;47.504;8.248;2023-04-25T04:14:06;5.23;;;2.53;;
20776;SDS011;10548;47.504;8.248;2023-04-25T04:16:36;5.87;;;2.67;;
20776;SDS011;10548;47.504;8.248;2023-04-25T04:19:03;5.60;;;2.63;;
20776;SDS011;10548;47.504;8.248;2023-04-25T04:21:32;4.60;;;2.87;;
20776;SDS011;10548;47.504;8.248;2023-04-25T04:24:01;5.90;;;2.90;;
20776;SDS011;10548;47.504;8.248;2023-04-25T04:26:33;8.83;;;3.40;;
20776;SDS011;10548;47.504;8.248;2023-04-25T04:29:11;6.22;;;3.38;;
20776;SDS011;10548;47.504;8.248;2023-04-25T04:31:53;10.47;;;3.40;;
20776;SDS011;10548;47.504;8.248;2023-04-25T04:34:20;5.67;;;2.93;;
20776;SDS011;10548;47.504;8.248;2023-04-25T04:36:48;8.77;;;4.03;;
20776;SDS011;10548;47.504;8.248;2023-04-25T04:39:15;8.50;;;4.47;;
20776;SDS011;10548;47.504;8.248;2023-04-25T04:42:04;8.10;;;3.40;;
20776;SDS011;10548;47.504;8.248;2023-04-25T04:44:50;7.57;;;3.83;;
20776;SDS011;10548;47.504;8.248;2023-04-25T04:47:24;9.03;;;4.00;;
20776;SDS011;10548;47.504;8.248;2023-04-25T04:50:02;9.17;;;4.33;;
20776;SDS011;10548;47.504;8.248;2023-04-25T04:53:01;7.53;;;3.80;;
20776;SDS011;10548;47.504;8.248;2023-04-25T04:55:58;8.67;;;3.27;;
20776;SDS011;10548;47.504;8.248;2023-04-25T04:58:51;10.00;;;3.93;;
20776;SDS011;10548;47.504;8.248;2023-04-25T05:01:45;7.63;;;3.83;;
20776;SDS011;10548;47.504;8.248;2023-04-25T05:04:20;7.37;;;3.67;;
20776;SDS011;10548;47.504;8.248;2023-04-25T05:07:22;8.83;;;4.27;;
20776;SDS011;10548;47.504;8.248;2023-04-25T05:10:09;10.80;;;4.50;;
20776;SDS011;10548;47.504;8.248;2023-04-25T05:13:00;13.93;;;4.80;;
20776;SDS011;10548;47.504;8.248;2023-04-25T05:15:42;8.97;;;4.40;;
20776;SDS011;10548;47.504;8.248;2023-04-25T05:18:29;13.27;;;4.33;;
20776;SDS011;10548;47.504;8.248;2023-04-25T05:21:20;8.67;;;3.87;;
20776;SDS011;10548;47.504;8.248;2023-04-25T05:24:14;12.63;;;4.00;;
20776;SDS011;10548;47.504;8.248;2023-04-25T05:26:58;12.20;;;4.50;;
20776;SDS011;10548;47.504;8.248;2023-04-25T05:29:54;9.80;;;4.30;;
20776;SDS011;10548;47.504;8.248;2023-04-25T05:32:26;13.73;;;4.33;;
20776;SDS011;10548;47.504;8.248;2023-04-25T05:35:08;13.57;;;5.17;;
20776;SDS011;10548;47.504;8.248;2023-04-25T05:37:41;9.30;;;4.67;;
20776;SDS011;10548;47.504;8.248;2023-04-25T05:40:11;13.47;;;5.33;;
20776;SDS011;10548;47.504;8.248;2023-04-25T05:42:58;15.77;;;5.67;;
20776;SDS011;10548;47.504;8.248;2023-04-25T05:45:44;16.33;;;5.73;;
20776;SDS011;10548;47.504;8.248;2023-04-25T05:48:29;13.53;;;6.23;;
20776;SDS011;10548;47.504;8.248;2023-04-25T05:51:20;11.43;;;5.67;;
20776;SDS011;10548;47.504;8.248;2023-04-25T05:54:04;14.70;;;5.77;;
20776;SDS011;10548;47.504;8.248;2023-04-25T05:56:32;19.57;;;8.23;;
20776;SDS011;10548;47.504;8.248;2023-04-25T05:59:00;6.20;;;2.53;;
20776;SDS011;10548;47.504;8.248;2023-04-25T06:01:27;10.80;;;3.10;;
20776;SDS011;10548;47.504;8.248;2023-04-25T06:03:54;6.20;;;2.20;;
20776;SDS011;10548;47.504;8.248;2023-04-25T06:06:22;7.60;;;2.90;;
20776;SDS011;10548;47.504;8.248;2023-04-25T06:08:50;5.80;;;2.13;;
20776;SDS011;10548;47.504;8.248;2023-04-25T06:11:17;5.53;;;2.20;;
20776;SDS011;10548;47.504;8.248;2023-04-25T06:13:45;2.47;;;2.10;;
20776;SDS011;10548;47.504;8.248;2023-04-25T06:16:14;4.37;;;2.27;;
20776;SDS011;10548;47.504;8.248;2023-04-25T06:18:41;3.90;;;2.10;;
20776;SDS011;10548;47.504;8.248;2023-04-25T06:21:08;5.87;;;2.40;;
20776;SDS011;10548;47.504;8.248;2023-04-25T06:23:36;5.20;;;1.90;;
20776;SDS011;10548;47.504;8.248;2023-04-25T06:26:06;6.00;;;2.33;;
20776;SDS011;10548;47.504;8.248;2023-04-25T06:28:36;2.67;;;1.47;;
20776;SDS011;10548;47.504;8.248;2023-04-25T06:31:03;3.93;;;1.80;;
20776;SDS011;10548;47.504;8.248;2023-04-25T06:33:31;3.07;;;1.53;;
20776;SDS011;10548;47.504;8.248;2023-04-25T06:35:58;4.17;;;1.90;;
20776;SDS011;10548;47.504;8.248;2023-04-25T06:38:27;5.93;;;2.00;;
20776;SDS011;10548;47.504;8.248;2023-04-25T06:40:56;2.30;;;1.60;;
20776;SDS011;10548;47.504;8.248;2023-04-25T06:43:24;5.87;;;2.40;;
20776;SDS011;10548;47.504;8.248;2023-04-25T06:46:03;2.73;;;2.00;;
20776;SDS011;10548;47.504;8.248;2023-04-25T06:48:36;4.40;;;1.90;;
20776;SDS011;10548;47.504;8.248;2023-04-25T06:51:04;3.07;;;1.57;;
20776;SDS011;10548;47.504;8.248;2023-04-25T06:53:33;4.10;;;2.17;;
20776;SDS011;10548;47.504;8.248;2023-04-25T06:56:02;3.50;;;1.80;;
20776;SDS011;10548;47.504;8.248;2023-04-25T06:58:46;6.57;;;2.70;;
20776;SDS011;10548;47.504;8.248;2023-04-25T07:01:22;5.27;;;2.30;;
20776;SDS011;10548;47.504;8.248;2023-04-25T07:03:50;6.50;;;2.20;;
20776;SDS011;10548;47.504;8.248;2023-04-25T07:06:18;7.93;;;2.60;;
20776;SDS011;10548;47.504;8.248;2023-04-25T07:08:45;6.90;;;3.10;;
20776;SDS011;10548;47.504;8.248;2023-04-25T07:11:12;3.33;;;2.33;;
20776;SDS011;10548;47.504;8.248;2023-04-25T07:13:40;7.23;;;3.03;;
20776;SDS011;10548;47.504;8.248;2023-04-25T07:16:07;7.23;;;3.07;;
20776;SDS011;10548;47.504;8.248;2023-04-25T07:18:35;5.23;;;3.10;;
20776;SDS011;10548;47.504;8.248;2023-04-25T07:21:02;5.13;;;3.17;;
20776;SDS011;10548;47.504;8.248;2023-04-25T07:23:32;5.97;;;2.80;;
20776;SDS011;10548;47.504;8.248;2023-04-25T07:26:03;5.83;;;3.20;;
20776;SDS011;10548;47.504;8.248;2023-04-25T07:28:30;10.33;;;4.03;;
20776;SDS011;10548;47.504;8.248;2023-04-25T07:30:58;6.03;;;4.17;;
20776;SDS011;10548;47.504;8.248;2023-04-25T07:33:25;7.47;;;3.70;;
20776;SDS011;10548;47.504;8.248;2023-04-25T07:35:52;5.50;;;3.97;;
20776;SDS011;10548;47.504;8.248;2023-04-25T07:38:21;12.57;;;4.37;;
20776;SDS011;10548;47.504;8.248;2023-04-25T07:40:49;9.00;;;4.43;;
20776;SDS011;10548;47.504;8.248;2023-04-25T07:43:17;8.37;;;4.07;;
20776;SDS011;10548;47.504;8.248;2023-04-25T07:45:52;9.23;;;4.83;;
20776;SDS011;10548;47.504;8.248;2023-04-25T07:48:20;9.70;;;4.70;;
20776;SDS011;10548;47.504;8.248;2023-04-25T07:50:50;14.57;;;4.70;;
20776;SDS011;10548;47.504;8.248;2023-04-25T07:53:17;8.67;;;3.97;;
20776;SDS011;10548;47.504;8.248;2023-04-25T07:55:51;7.13;;;3.87;;
20776;SDS011;10548;47.504;8.248;2023-04-25T07:58:19;7.70;;;3.70;;
20776;SDS011;10548;47.504;8.248;2023-04-25T08:00:55;7.07;;;3.97;;
20776;SDS011;10548;47.504;8.248;2023-04-25T08:03:46;7.10;;;3.70;;
20776;SDS011;10548;47.504;8.248;2023-04-25T08:06:20;8.77;;;4.20;;
20776;SDS011;10548;47.504;8.248;2023-04-25T08:09:20;5.90;;;3.70;;
20776;SDS011;10548;47.504;8.248;2023-04-25T08:11:48;8.03;;;3.53;;
20776;SDS011;10548;47.504;8.248;2023-04-25T08:14:19;7.90;;;3.50;;
20776;SDS011;10548;47.504;8.248;2023-04-25T08:16:47;7.43;;;3.40;;
20776;SDS011;10548;47.504;8.248;2023-04-25T08:19:17;7.37;;;2.83;;
20776;SDS011;10548;47.504;8.248;2023-04-25T08:21:45;4.83;;;2.30;;
20776;SDS011;10548;47.504;8.248;2023-04-25T08:24:17;4.40;;;2.27;;
20776;SDS011;10548;47.504;8.248;2023-04-25T08:26:44;4.33;;;2.47;;
20776;SDS011;10548;47.504;8.248;2023-04-25T08:29:15;3.23;;;1.80;;
20776;SDS011;10548;47.504;8.248;2023-04-25T08:31:43;2.30;;;1.30;;
20776;SDS011;10548;47.504;8.248;2023-04-25T08:34:11;3.83;;;1.60;;
20776;SDS011;10548;47.504;8.248;2023-04-25T08:36:46;1.97;;;1.60;;
20776;SDS011;10548;47.504;8.248;2023-04-25T08:39:21;2.40;;;1.37;;
20776;SDS011;10548;47.504;8.248;2023-04-25T08:42:20;2.30;;;1.80;;
20776;SDS011;10548;47.504;8.248;2023-04-25T08:44:49;3.27;;;1.60;;
20776;SDS011;10548;47.504;8.248;2023-04-25T08:47:18;2.07;;;1.60;;
20776;SDS011;10548;47.504;8.248;2023-04-25T08:49:53;3.13;;;1.73;;
20776;SDS011;10548;47.504;8.248;2023-04-25T08:52:22;1.70;;;1.40;;
20776;SDS011;10548;47.504;8.248;2023-04-25T08:54:51;3.90;;;1.50;;
20776;SDS011;10548;47.504;8.248;2023-04-25T08:57:21;2.47;;;1.60;;
20776;SDS011;10548;47.504;8.248;2023-04-25T08:59:49;3.10;;;1.23;;
20776;SDS011;10548;47.504;8.248;2023-04-25T09:02:20;2.30;;;1.40;;
20776;SDS011;10548;47.504;8.248;2023-04-25T09:04:50;2.13;;;1.50;;
20776;SDS011;10548;47.504;8.248;2023-04-25T09:07:17;2.00;;;1.43;;
20776;SDS011;10548;47.504;8.248;2023-04-25T09:09:48;3.27;;;1.40;;
20776;SDS011;10548;47.504;8.248;2023-04-25T09:12:18;3.50;;;2.03;;
20776;SDS011;10548;47.504;8.248;2023-04-25T09:18:03;3.37;;;1.40;;
20776;SDS011;10548;47.504;8.248;2023-04-25T09:20:44;3.03;;;1.53;;
20776;SDS011;10548;47.504;8.248;2023-04-25T09:23:29;1.43;;;1.30;;
20776;SDS011;10548;47.504;8.248;2023-04-25T09:25:56;2.93;;;1.20;;
20776;SDS011;10548;47.504;8.248;2023-04-25T09:28:24;2.57;;;1.37;;
20776;SDS011;10548;47.504;8.248;2023-04-25T09:30:56;2.30;;;1.57;;
20776;SDS011;10548;47.504;8.248;2023-04-25T09:33:31;4.80;;;1.20;;
20776;SDS011;10548;47.504;8.248;2023-04-25T09:36:03;1.20;;;1.10;;
20776;SDS011;10548;47.504;8.248;2023-04-25T09:38:51;3.07;;;1.23;;
20776;SDS011;10548;47.504;8.248;2023-04-25T09:41:30;1.57;;;1.37;;
20776;SDS011;10548;47.504;8.248;2023-04-25T09:44:00;1.60;;;1.10;;
20776;SDS011;10548;47.504;8.248;2023-04-25T09:46:35;4.40;;;1.10;;
20776;SDS011;10548;47.504;8.248;2023-04-25T09:49:12;2.93;;;1.30;;
20776;SDS011;10548;47.504;8.248;2023-04-25T09:52:00;1.20;;;1.10;;
20776;SDS011;10548;47.504;8.248;2023-04-25T09:54:50;2.77;;;1.33;;
20776;SDS011;10548;47.504;8.248;2023-04-25T09:57:25;1.57;;;0.90;;
20776;SDS011;10548;47.504;8.248;2023-04-25T09:59:55;2.67;;;1.17;;
20776;SDS011;10548;47.504;8.248;2023-04-25T10:02:24;2.20;;;0.90;;
20776;SDS011;10548;47.504;8.248;2023-04-25T10:04:58;2.33;;;1.10;;
20776;SDS011;10548;47.504;8.248;2023-04-25T10:07:33;1.80;;;0.97;;
20776;SDS011;10548;47.504;8.248;2023-04-25T10:10:08;2.50;;;1.10;;
20776;SDS011;10548;47.504;8.248;2023-04-25T10:12:39;1.73;;;1.00;;
20776;SDS011;10548;47.504;8.248;2023-04-25T10:15:07;3.80;;;0.90;;
20776;SDS011;10548;47.504;8.248;2023-04-25T10:17:36;0.90;;;0.80;;
20776;SDS011;10548;47.504;8.248;2023-04-25T10:20:04;1.00;;;0.93;;
20776;SDS011;10548;47.504;8.248;2023-04-25T10:22:38;2.83;;;1.17;;
20776;SDS011;10548;47.504;8.248;2023-04-25T10:25:08;1.30;;;1.00;;
20776;SDS011;10548;47.504;8.248;2023-04-25T10:27:36;2.37;;;0.90;;
20776;SDS011;10548;47.504;8.248;2023-04-25T10:30:04;1.00;;;0.90;;
20776;SDS011;10548;47.504;8.248;2023-04-25T10:32:39;1.83;;;1.07;;
20776;SDS011;10548;47.504;8.248;2023-04-25T10:35:17;2.37;;;1.10;;
20776;SDS011;10548;47.504;8.248;2023-04-25T10:38:08;5.00;;;1.40;;
20776;SDS011;10548;47.504;8.248;2023-04-25T10:40:36;1.70;;;1.10;;
20776;SDS011;10548;47.504;8.248;2023-04-25T10:46:16;1.83;;;1.10;;
20776;SDS011;10548;47.504;8.248;2023-04-25T10:49:10;4.37;;;1.30;;
20776;SDS011;10548;47.504;8.248;2023-04-25T10:52:10;1.77;;;1.13;;
20776;SDS011;10548;47.504;8.248;2023-04-25T10:54:53;2.47;;;1.17;;
20776;SDS011;10548;47.504;8.248;2023-04-25T10:57:32;1.93;;;1.10;;
20776;SDS011;10548;47.504;8.248;2023-04-25T11:00:12;3.20;;;1.13;;
20776;SDS011;10548;47.504;8.248;2023-04-25T11:02:45;2.47;;;1.13;;
20776;SDS011;10548;47.504;8.248;2023-04-25T11:05:36;1.97;;;1.50;;
20776;SDS011;10548;47.504;8.248;2023-04-25T11:08:27;2.77;;;1.10;;
20776;SDS011;10548;47.504;8.248;2023-04-25T11:11:11;3.07;;;1.27;;
20776;SDS011;10548;47.504;8.248;2023-04-25T11:13:39;6.60;;;1.47;;
20776;SDS011;10548;47.504;8.248;2023-04-25T11:16:09;3.77;;;1.40;;
20776;SDS011;10548;47.504;8.248;2023-04-25T11:18:42;2.30;;;1.53;;
20776;SDS011;10548;47.504;8.248;2023-04-25T11:21:09;1.30;;;1.10;;
20776;SDS011;10548;47.504;8.248;2023-04-25T11:23:37;3.07;;;1.50;;
20776;SDS011;10548;47.504;8.248;2023-04-25T11:26:04;2.60;;;1.97;;
20776;SDS011;10548;47.504;8.248;2023-04-25T11:28:31;2.13;;;1.40;;
20776;SDS011;10548;47.504;8.248;2023-04-25T11:30:58;3.80;;;1.40;;
20776;SDS011;10548;47.504;8.248;2023-04-25T11:33:25;2.53;;;1.50;;
20776;SDS011;10548;47.504;8.248;2023-04-25T11:35:56;3.07;;;1.30;;
20776;SDS011;10548;47.504;8.248;2023-04-25T11:38:24;2.40;;;1.43;;
20776;SDS011;10548;47.504;8.248;2023-04-25T11:40:54;3.27;;;1.60;;
20776;SDS011;10548;47.504;8.248;2023-04-25T11:43:22;12.50;;;1.80;;
20776;SDS011;10548;47.504;8.248;2023-04-25T11:45:49;7.30;;;2.50;;
20776;SDS011;10548;47.504;8.248;2023-04-25T11:48:18;4.00;;;1.80;;
20776;SDS011;10548;47.504;8.248;2023-04-25T11:50:53;3.73;;;1.77;;
20776;SDS011;10548;47.504;8.248;2023-04-25T11:53:20;2.13;;;1.90;;
20776;SDS011;10548;47.504;8.248;2023-04-25T11:55:48;2.83;;;1.70;;
20776;SDS011;10548;47.504;8.248;2023-04-25T11:58:17;3.70;;;1.90;;
20776;SDS011;10548;47.504;8.248;2023-04-25T12:00:45;4.37;;;2.00;;
20776;SDS011;10548;47.504;8.248;2023-04-25T12:03:17;1.60;;;1.50;;
20776;SDS011;10548;47.504;8.248;2023-04-25T12:05:45;2.43;;;1.60;;
20776;SDS011;10548;47.504;8.248;2023-04-25T12:08:14;3.60;;;1.50;;
20776;SDS011;10548;47.504;8.248;2023-04-25T12:10:43;3.63;;;2.00;;
20776;SDS011;10548;47.504;8.248;2023-04-25T12:16:06;3.67;;;1.67;;
20776;SDS011;10548;47.504;8.248;2023-04-25T12:18:35;2.17;;;1.40;;
20776;SDS011;10548;47.504;8.248;2023-04-25T12:21:02;5.13;;;1.30;;
20776;SDS011;10548;47.504;8.248;2023-04-25T12:23:31;2.63;;;1.37;;
20776;SDS011;10548;47.504;8.248;2023-04-25T12:25:58;2.80;;;1.37;;
20776;SDS011;10548;47.504;8.248;2023-04-25T12:28:25;2.23;;;1.53;;
20776;SDS011;10548;47.504;8.248;2023-04-25T12:31:06;2.33;;;1.60;;
20776;SDS011;10548;47.504;8.248;2023-04-25T12:33:34;3.17;;;1.33;;
20776;SDS011;10548;47.504;8.248;2023-04-25T12:36:03;4.57;;;1.43;;
20776;SDS011;10548;47.504;8.248;2023-04-25T12:38:40;2.40;;;1.33;;
20776;SDS011;10548;47.504;8.248;2023-04-25T12:41:08;1.73;;;1.10;;
20776;SDS011;10548;47.504;8.248;2023-04-25T12:43:35;2.63;;;1.30;;
20776;SDS011;10548;47.504;8.248;2023-04-25T12:46:02;3.20;;;1.23;;
20776;SDS011;10548;47.504;8.248;2023-04-25T12:48:30;2.00;;;1.43;;
20776;SDS011;10548;47.504;8.248;2023-04-25T12:50:57;1.63;;;1.20;;
20776;SDS011;10548;47.504;8.248;2023-04-25T12:53:25;2.67;;;1.10;;
20776;SDS011;10548;47.504;8.248;2023-04-25T12:55:52;2.57;;;1.30;;
20776;SDS011;10548;47.504;8.248;2023-04-25T12:58:24;1.97;;;1.20;;
20776;SDS011;10548;47.504;8.248;2023-04-25T13:00:52;2.77;;;1.30;;
20776;SDS011;10548;47.504;8.248;2023-04-25T13:03:19;4.20;;;1.83;;
20776;SDS011;10548;47.504;8.248;2023-04-25T13:05:47;1.77;;;1.17;;
20776;SDS011;10548;47.504;8.248;2023-04-25T13:08:14;1.70;;;1.13;;
20776;SDS011;10548;47.504;8.248;2023-04-25T13:10:41;5.03;;;1.50;;
20776;SDS011;10548;47.504;8.248;2023-04-25T13:13:08;3.77;;;1.67;;
20776;SDS011;10548;47.504;8.248;2023-04-25T13:15:36;2.17;;;1.70;;
20776;SDS011;10548;47.504;8.248;2023-04-25T13:18:04;3.27;;;1.60;;
20776;SDS011;10548;47.504;8.248;2023-04-25T13:20:34;2.37;;;1.50;;
20776;SDS011;10548;47.504;8.248;2023-04-25T13:23:02;2.17;;;1.67;;
20776;SDS011;10548;47.504;8.248;2023-04-25T13:25:29;4.07;;;2.30;;
20776;SDS011;10548;47.504;8.248;2023-04-25T13:27:56;3.63;;;2.07;;
20776;SDS011;10548;47.504;8.248;2023-04-25T13:30:24;3.07;;;1.90;;
20776;SDS011;10548;47.504;8.248;2023-04-25T13:32:51;2.87;;;2.00;;
20776;SDS011;10548;47.504;8.248;2023-04-25T13:35:19;4.70;;;2.40;;
20776;SDS011;10548;47.504;8.248;2023-04-25T13:37:46;4.20;;;1.90;;
20776;SDS011;10548;47.504;8.248;2023-04-25T13:40:13;2.93;;;1.87;;
20776;SDS011;10548;47.504;8.248;2023-04-25T13:42:41;3.70;;;2.00;;
20776;SDS011;10548;47.504;8.248;2023-04-25T13:45:10;3.77;;;1.73;;
20776;SDS011;10548;47.504;8.248;2023-04-25T13:47:37;3.33;;;1.50;;
20776;SDS011;10548;47.504;8.248;2023-04-25T13:50:05;3.20;;;1.60;;
20776;SDS011;10548;47.504;8.248;2023-04-25T13:52:33;3.40;;;1.90;;
20776;SDS011;10548;47.504;8.248;2023-04-25T13:55:00;2.87;;;1.53;;
20776;SDS011;10548;47.504;8.248;2023-04-25T13:57:33;4.07;;;1.70;;
20776;SDS011;10548;47.504;8.248;2023-04-25T14:00:02;2.47;;;1.70;;
20776;SDS011;10548;47.504;8.248;2023-04-25T14:02:35;3.83;;;1.77;;
20776;SDS011;10548;47.504;8.248;2023-04-25T14:05:03;5.47;;;2.03;;
20776;SDS011;10548;47.504;8.248;2023-04-25T14:07:31;5.40;;;1.97;;
20776;SDS011;10548;47.504;8.248;2023-04-25T14:09:59;2.87;;;1.80;;
20776;SDS011;10548;47.504;8.248;2023-04-25T14:12:27;3.70;;;1.40;;
20776;SDS011;10548;47.504;8.248;2023-04-25T14:14:54;2.97;;;1.57;;
20776;SDS011;10548;47.504;8.248;2023-04-25T14:17:21;2.63;;;1.50;;
20776;SDS011;10548;47.504;8.248;2023-04-25T14:19:49;2.43;;;1.00;;
20776;SDS011;10548;47.504;8.248;2023-04-25T14:22:16;3.70;;;1.27;;
20776;SDS011;10548;47.504;8.248;2023-04-25T14:24:44;1.80;;;1.07;;
20776;SDS011;10548;47.504;8.248;2023-04-25T14:27:11;1.87;;;1.17;;
20776;SDS011;10548;47.504;8.248;2023-04-25T14:29:38;2.63;;;1.10;;
20776;SDS011;10548;47.504;8.248;2023-04-25T14:32:05;4.80;;;1.30;;
20776;SDS011;10548;47.504;8.248;2023-04-25T14:34:32;1.53;;;1.10;;
20776;SDS011;10548;47.504;8.248;2023-04-25T14:37:00;2.60;;;1.10;;
20776;SDS011;10548;47.504;8.248;2023-04-25T14:39:27;4.83;;;1.20;;
20776;SDS011;10548;47.504;8.248;2023-04-25T14:41:54;2.47;;;1.10;;
20776;SDS011;10548;47.504;8.248;2023-04-25T14:44:22;2.87;;;1.33;;
20776;SDS011;10548;47.504;8.248;2023-04-25T14:46:49;1.67;;;1.20;;
20776;SDS011;10548;47.504;8.248;2023-04-25T14:49:18;5.50;;;1.43;;
20776;SDS011;10548;47.504;8.248;2023-04-25T14:51:45;1.93;;;1.30;;
20776;SDS011;10548;47.504;8.248;2023-04-25T14:54:12;1.93;;;1.40;;
20776;SDS011;10548;47.504;8.248;2023-04-25T14:56:39;4.03;;;1.30;;
20776;SDS011;10548;47.504;8.248;2023-04-25T14:59:06;3.10;;;1.53;;
20776;SDS011;10548;47.504;8.248;2023-04-25T15:01:34;1.33;;;1.00;;
20776;SDS011;10548;47.504;8.248;2023-04-25T15:04:01;1.50;;;1.00;;
20776;SDS011;10548;47.504;8.248;2023-04-25T15:06:30;3.43;;;0.90;;
20776;SDS011;10548;47.504;8.248;2023-04-25T15:08:57;1.47;;;0.90;;
20776;SDS011;10548;47.504;8.248;2023-04-25T15:11:24;3.33;;;0.83;;
20776;SDS011;10548;47.504;8.248;2023-04-25T15:13:51;0.93;;;0.70;;
20776;SDS011;10548;47.504;8.248;2023-04-25T15:16:19;1.07;;;0.97;;
20776;SDS011;10548;47.504;8.248;2023-04-25T15:18:46;0.70;;;0.70;;
20776;SDS011;10548;47.504;8.248;2023-04-25T15:21:14;2.50;;;0.90;;